createdAt,value
2023-03-04T00:03:24.596Z,100.00
2023-03-04T00:08:25.395Z,100.00
2023-03-04T00:13:26.259Z,100.00
2023-03-04T00:18:27.070Z,100.00
2023-03-04T00:23:27.851Z,100.00
2023-03-04T00:28:28.783Z,100.00
2023-03-04T00:33:29.619Z,100.00
2023-03-04T00:38:30.728Z,100.00
2023-03-04T00:43:31.642Z,100.00
2023-03-04T00:48:32.746Z,100.00
2023-03-04T00:53:34.076Z,100.00
2023-03-04T00:58:34.866Z,100.00
2023-03-04T01:03:35.882Z,100.00
2023-03-04T01:08:36.772Z,100.00
2023-03-04T01:13:37.904Z,100.00
2023-03-04T01:18:41.470Z,100.00
2023-03-04T01:23:43.318Z,100.00
2023-03-04T01:28:44.113Z,100.00
2023-03-04T01:33:44.880Z,100.00
2023-03-04T01:38:45.617Z,100.00
2023-03-04T01:43:46.465Z,100.00
2023-03-04T01:48:47.341Z,100.00
2023-03-04T01:53:52.421Z,100.00
2023-03-04T02:02:24.995Z,100.00
2023-03-04T02:07:25.790Z,100.00
2023-03-04T02:12:26.578Z,100.00
2023-03-04T02:17:28.334Z,100.00
2023-03-04T02:22:29.425Z,100.00
2023-03-04T02:27:30.433Z,100.00
2023-03-04T02:32:31.383Z,100.00
2023-03-04T02:37:32.280Z,100.00
2023-03-04T02:42:33.064Z,100.00
2023-03-04T02:47:34.081Z,100.00
2023-03-04T02:52:34.881Z,100.00
2023-03-04T02:57:36.073Z,100.00
2023-03-04T03:02:36.898Z,100.00
2023-03-04T03:07:37.871Z,100.00
2023-03-04T03:12:38.797Z,100.00
2023-03-04T03:17:39.771Z,100.00
2023-03-04T03:22:40.748Z,100.00
2023-03-04T03:27:43.268Z,100.00
2023-03-04T03:32:45.131Z,100.00
2023-03-04T03:37:48.180Z,100.00
2023-03-04T03:42:48.944Z,100.00
2023-03-04T03:47:49.826Z,100.00
2023-03-04T03:52:50.628Z,100.00
2023-03-04T03:57:51.611Z,100.00
2023-03-04T04:02:54.961Z,100.00
2023-03-04T04:07:55.754Z,100.00
2023-03-04T04:12:56.573Z,100.00
2023-03-04T04:17:57.446Z,100.00
2023-03-04T04:22:58.192Z,100.00
2023-03-04T04:27:59.005Z,100.00
2023-03-04T04:33:01.085Z,100.00
2023-03-04T04:38:01.943Z,100.00
2023-03-04T04:43:03.276Z,100.00
2023-03-04T04:48:04.284Z,100.00
2023-03-04T04:53:05.026Z,100.00
2023-03-04T04:58:07.202Z,100.00
2023-03-04T05:03:08.369Z,100.00
2023-03-04T05:08:09.141Z,100.00
2023-03-04T05:13:09.915Z,100.00
2023-03-04T05:18:10.750Z,100.00
2023-03-04T05:23:11.486Z,100.00
2023-03-04T05:28:12.358Z,100.00
2023-03-04T05:33:15.190Z,100.00
2023-03-04T05:38:18.912Z,100.00
2023-03-04T05:43:21.186Z,100.00
2023-03-04T05:48:22.722Z,100.00
2023-03-04T05:53:24.137Z,100.00
2023-03-04T05:58:25.340Z,100.00
2023-03-04T06:03:26.104Z,100.00
2023-03-04T06:08:27.195Z,100.00
2023-03-04T06:13:27.927Z,100.00
2023-03-04T06:18:28.833Z,100.00
2023-03-04T06:23:29.969Z,100.00
2023-03-04T06:28:30.724Z,100.00
2023-03-04T06:33:31.694Z,100.00
2023-03-04T06:38:32.575Z,100.00
2023-03-04T06:43:33.320Z,100.00
2023-03-04T06:48:34.233Z,100.00
2023-03-04T06:53:35.851Z,100.00
2023-03-04T06:58:36.861Z,100.00
2023-03-04T07:03:37.603Z,100.00
2023-03-04T07:08:39.139Z,100.00
2023-03-04T07:13:39.997Z,100.00
2023-03-04T07:18:40.865Z,100.00
2023-03-04T07:23:42.547Z,100.00
2023-03-04T07:28:43.863Z,100.00
2023-03-04T07:33:44.836Z,100.00
2023-03-04T07:38:48.335Z,100.00
2023-03-04T07:43:49.987Z,100.00
2023-03-04T07:48:50.886Z,100.00
2023-03-04T07:53:55.173Z,100.00
2023-03-04T07:58:56.619Z,100.00
2023-03-04T08:03:58.332Z,100.00
2023-03-04T08:09:05.718Z,100.00
2023-03-04T08:14:08.370Z,100.00
2023-03-04T08:19:12.407Z,100.00
2023-03-04T08:24:13.391Z,100.00
2023-03-04T08:29:19.758Z,100.00
2023-03-04T08:34:24.301Z,99.09
2023-03-04T08:39:25.901Z,100.00
2023-03-04T08:44:26.889Z,100.00
2023-03-04T08:49:27.948Z,100.00
2023-03-04T08:54:28.708Z,100.00
2023-03-04T08:59:29.612Z,100.00
2023-03-04T09:04:30.347Z,99.90
2023-03-04T09:09:31.191Z,100.00
2023-03-04T09:14:34.945Z,97.90
2023-03-04T09:19:36.206Z,99.79
2023-03-04T09:24:37.043Z,99.32
2023-03-04T09:29:37.829Z,99.31
2023-03-04T09:34:38.632Z,99.01
2023-03-04T09:39:39.421Z,99.23
2023-03-04T09:44:43.345Z,98.33
2023-03-04T09:49:53.339Z,98.38
2023-03-04T09:55:05.566Z,98.05
2023-03-04T10:00:19.407Z,99.00
2023-03-04T10:05:24.026Z,98.43
2023-03-04T10:10:31.588Z,99.39
2023-03-04T10:15:43.312Z,98.72
2023-03-04T10:20:58.502Z,97.47
2023-03-04T10:26:10.103Z,98.50
2023-03-04T10:31:29.350Z,99.03
2023-03-04T10:36:42.909Z,97.58
2023-03-04T10:41:54.423Z,98.65
2023-03-04T10:46:57.225Z,99.75
2023-03-04T10:52:14.663Z,99.27
2023-03-04T10:57:22.936Z,98.60
2023-03-04T11:02:35.428Z,98.29
2023-03-04T11:07:54.016Z,98.71
2023-03-04T11:13:20.723Z,98.07
2023-03-04T11:18:40.797Z,98.62
2023-03-04T11:23:51.275Z,99.16
2023-03-04T11:29:01.458Z,97.28
2023-03-04T11:34:08.748Z,97.58
2023-03-04T11:39:32.213Z,97.96
2023-03-04T11:44:33.610Z,98.07
2023-03-04T11:51:26.890Z,98.14
2023-03-04T11:58:16.214Z,97.97
2023-03-04T12:03:45.507Z,96.85
2023-03-04T12:09:00.012Z,95.65
2023-03-04T12:14:16.478Z,94.29
2023-03-04T12:19:52.172Z,94.84
2023-03-04T12:26:39.697Z,93.94
2023-03-04T12:31:42.435Z,92.29
2023-03-04T12:42:52.723Z,91.12
2023-03-04T12:51:11.002Z,89.60
2023-03-04T12:56:40.008Z,89.89
2023-03-04T13:02:32.442Z,88.81
2023-03-04T13:08:12.821Z,87.84
2023-03-04T13:13:39.151Z,86.74
2023-03-04T13:18:39.896Z,86.90
2023-03-04T13:23:44.281Z,87.43
2023-03-04T13:28:45.317Z,89.01
2023-03-04T13:33:57.506Z,90.42
2023-03-04T13:39:20.921Z,87.42
2023-03-04T13:46:56.608Z,88.02
2023-03-04T13:51:58.542Z,88.88
2023-03-04T13:57:26.341Z,87.39
2023-03-04T14:02:33.780Z,89.14
2023-03-04T14:07:39.035Z,88.60
2023-03-04T14:12:44.562Z,88.39
2023-03-04T14:17:51.252Z,89.06
2023-03-04T14:22:52.566Z,88.78
2023-03-04T14:28:56.721Z,88.02
2023-03-04T14:34:01.362Z,88.14
2023-03-04T14:39:06.510Z,88.28
2023-03-04T14:44:51.146Z,90.09
2023-03-04T14:49:52.513Z,92.11
2023-03-04T14:56:52.159Z,91.81
2023-03-04T15:01:52.989Z,92.15
2023-03-04T15:06:53.879Z,91.81
2023-03-04T15:12:03.438Z,92.41
2023-03-04T15:17:04.216Z,92.11
2023-03-04T15:22:06.260Z,91.60
2023-03-04T15:27:11.501Z,92.45
2023-03-04T15:32:12.397Z,91.71
2023-03-04T15:37:21.069Z,91.42
2023-03-04T15:42:22.336Z,91.87
2023-03-04T15:47:24.850Z,92.06
2023-03-04T15:52:25.660Z,92.28
2023-03-04T15:57:27.066Z,93.28
2023-03-04T16:02:27.857Z,92.70
2023-03-04T16:07:29.974Z,94.10
2023-03-04T16:12:31.801Z,94.74
2023-03-04T16:17:32.604Z,95.65
2023-03-04T16:22:33.598Z,96.57
2023-03-04T16:27:34.394Z,96.60
2023-03-04T16:32:35.401Z,96.91
2023-03-04T16:37:36.900Z,97.52
2023-03-04T16:42:37.899Z,96.65
2023-03-04T16:47:38.641Z,98.46
2023-03-04T16:52:39.489Z,98.81
2023-03-04T16:57:40.237Z,99.24
2023-03-04T17:02:41.035Z,99.71
2023-03-04T17:07:41.827Z,99.25
2023-03-04T17:12:43.371Z,98.61
2023-03-04T17:17:44.452Z,99.04
2023-03-04T17:22:45.564Z,100.00
2023-03-04T17:27:46.307Z,100.00
2023-03-04T17:32:47.102Z,100.00
2023-03-04T17:37:47.944Z,100.00
2023-03-04T17:42:48.954Z,100.00
2023-03-04T17:47:49.832Z,100.00
2023-03-04T17:52:50.659Z,100.00
2023-03-04T17:57:52.282Z,100.00
2023-03-04T18:02:53.090Z,100.00
2023-03-04T18:07:53.856Z,100.00
2023-03-04T18:12:55.041Z,100.00
2023-03-04T18:17:55.993Z,100.00
2023-03-04T18:22:57.944Z,100.00
2023-03-04T18:27:58.747Z,100.00
2023-03-04T18:33:01.430Z,100.00
2023-03-04T18:38:02.729Z,100.00
2023-03-04T18:43:03.987Z,100.00
2023-03-04T18:48:05.185Z,100.00
2023-03-04T18:53:05.959Z,100.00
2023-03-04T18:58:06.783Z,100.00
2023-03-04T19:03:11.675Z,100.00
2023-03-04T19:08:12.584Z,100.00
2023-03-04T19:13:15.310Z,100.00
2023-03-04T19:18:16.264Z,100.00
2023-03-04T19:23:17.288Z,100.00
2023-03-04T19:28:18.142Z,100.00
2023-03-04T19:33:19.335Z,100.00
2023-03-04T19:38:20.128Z,100.00
2023-03-04T19:43:21.058Z,100.00
2023-03-04T19:48:23.325Z,100.00
2023-03-04T19:53:24.093Z,100.00
2023-03-04T19:58:25.574Z,100.00
2023-03-04T20:03:26.311Z,100.00
2023-03-04T20:08:27.110Z,100.00
2023-03-04T20:13:27.949Z,100.00
2023-03-04T20:18:28.746Z,100.00
2023-03-04T20:23:29.793Z,100.00
2023-03-04T20:28:31.144Z,100.00
2023-03-04T20:33:31.920Z,100.00
2023-03-04T20:38:32.696Z,100.00
2023-03-04T20:43:33.648Z,100.00
2023-03-04T20:48:34.389Z,100.00
2023-03-04T20:53:35.151Z,100.00
2023-03-04T20:58:35.951Z,100.00
2023-03-04T21:03:36.750Z,100.00
2023-03-04T21:08:38.867Z,100.00
2023-03-04T21:13:41.808Z,100.00
2023-03-04T21:18:43.526Z,100.00
2023-03-04T21:23:51.419Z,100.00
2023-03-04T21:28:53.307Z,100.00
2023-03-04T21:33:55.614Z,100.00
2023-03-04T21:38:56.430Z,100.00
2023-03-04T21:43:57.390Z,100.00
2023-03-04T21:48:58.180Z,100.00
2023-03-04T21:53:58.982Z,100.00
2023-03-04T21:59:01.313Z,100.00
2023-03-04T22:04:03.244Z,100.00
2023-03-04T22:09:04.400Z,100.00
2023-03-04T22:14:05.839Z,100.00
2023-03-04T22:19:06.619Z,100.00
2023-03-04T22:24:07.476Z,100.00
2023-03-04T22:29:08.257Z,100.00
2023-03-04T22:34:11.494Z,100.00
2023-03-04T22:39:13.685Z,100.00
2023-03-04T22:44:14.648Z,100.00
2023-03-04T22:49:15.473Z,100.00
2023-03-04T22:54:17.627Z,100.00
2023-03-04T22:59:18.370Z,100.00
2023-03-04T23:04:19.162Z,100.00
2023-03-04T23:09:19.943Z,100.00
2023-03-04T23:14:21.297Z,100.00
2023-03-04T23:19:22.314Z,100.00
2023-03-04T23:24:25.809Z,100.00
2023-03-04T23:29:26.624Z,100.00
2023-03-04T23:34:27.563Z,100.00
2023-03-04T23:39:28.295Z,100.00
2023-03-04T23:44:29.194Z,100.00
2023-03-04T23:49:30.043Z,100.00
2023-03-04T23:54:30.975Z,100.00
2023-03-04T23:59:31.745Z,100.00
